createdAt,value
2018-04-22T00:00:41.334Z,17.34
2018-04-22T00:01:41.360Z,17.38
2018-04-22T00:02:41.248Z,17.38
2018-04-22T00:03:41.390Z,17.46
2018-04-22T00:04:41.407Z,17.38
2018-04-22T00:05:41.568Z,17.47
2018-04-22T00:06:41.305Z,17.46
2018-04-22T00:07:41.319Z,17.49
2018-04-22T00:08:41.461Z,17.46
2018-04-22T00:09:41.473Z,17.41
2018-04-22T00:10:41.638Z,17.38
2018-04-22T00:11:41.502Z,17.38
2018-04-22T00:12:41.517Z,17.38
2018-04-22T00:13:41.416Z,17.28
2018-04-22T00:14:41.415Z,17.38
2018-04-22T00:15:41.584Z,17.31
2018-04-22T00:16:41.454Z,17.37
2018-04-22T00:17:41.589Z,17.34
2018-04-22T00:18:41.485Z,17.32
2018-04-22T00:19:41.500Z,17.24
2018-04-22T00:20:41.630Z,17.30
2018-04-22T00:21:41.743Z,17.27
2018-04-22T00:22:41.661Z,17.28
2018-04-22T00:23:41.548Z,17.27
2018-04-22T00:24:41.690Z,17.35
2018-04-22T00:25:41.573Z,17.23
2018-04-22T00:26:41.758Z,17.34
2018-04-22T00:27:41.729Z,17.38
2018-04-22T00:28:41.743Z,17.35
2018-04-22T00:29:41.637Z,17.38
2018-04-22T00:30:41.646Z,17.38
2018-04-22T00:31:41.988Z,17.34
2018-04-22T00:32:41.671Z,17.39
2018-04-22T00:33:41.689Z,17.42
2018-04-22T00:34:41.702Z,17.44
2018-04-22T00:35:41.843Z,17.38
2018-04-22T00:36:41.877Z,17.35
2018-04-22T00:37:41.753Z,17.34
2018-04-22T00:38:41.882Z,17.35
2018-04-22T00:39:41.897Z,17.41
2018-04-22T00:40:41.802Z,17.34
2018-04-22T00:41:42.012Z,17.35
2018-04-22T00:42:41.937Z,17.30
2018-04-22T00:43:41.826Z,17.41
2018-04-22T00:44:41.850Z,17.42
2018-04-22T00:45:41.980Z,17.41
2018-04-22T00:46:42.077Z,17.42
2018-04-22T00:47:42.010Z,17.42
2018-04-22T00:48:41.897Z,17.34
2018-04-22T00:49:41.918Z,17.44
2018-04-22T00:50:41.928Z,17.38
2018-04-22T00:51:42.095Z,17.39
2018-04-22T00:52:41.964Z,17.38
2018-04-22T00:53:42.093Z,17.46
2018-04-22T00:54:41.995Z,17.46
2018-04-22T00:55:42.131Z,17.35
2018-04-22T00:56:42.162Z,17.32
2018-04-22T00:57:42.149Z,17.30
2018-04-22T00:58:42.043Z,17.35
2018-04-22T00:59:42.053Z,17.31
2018-04-22T01:00:42.075Z,17.35
2018-04-22T01:01:42.383Z,17.31
2018-04-22T01:02:42.103Z,17.28
2018-04-22T01:03:42.112Z,17.31
2018-04-22T01:04:42.131Z,17.35
2018-04-22T01:05:42.136Z,17.23
2018-04-22T01:06:42.377Z,17.30
2018-04-22T01:07:42.178Z,17.27
2018-04-22T01:08:42.179Z,17.28
2018-04-22T01:09:42.205Z,17.20
2018-04-22T01:10:42.341Z,17.28
2018-04-22T01:11:42.368Z,17.23
2018-04-22T01:12:42.254Z,17.30
2018-04-22T01:13:42.248Z,17.30
2018-04-22T01:14:42.277Z,17.27
2018-04-22T01:15:42.406Z,17.30
2018-04-22T01:16:42.441Z,17.32
2018-04-22T01:17:42.312Z,17.32
2018-04-22T01:18:42.320Z,17.31
2018-04-22T01:19:42.331Z,17.23
2018-04-22T01:20:42.474Z,17.32
2018-04-22T01:21:42.591Z,17.22
2018-04-22T01:22:42.502Z,17.31
2018-04-22T01:23:42.518Z,17.27
2018-04-22T01:24:42.408Z,17.31
2018-04-22T01:25:42.547Z,17.31
2018-04-22T01:26:42.564Z,17.37
2018-04-22T01:27:42.549Z,17.31
2018-04-22T01:28:42.471Z,17.28
2018-04-22T01:29:42.602Z,17.41
2018-04-22T01:30:42.502Z,17.32
2018-04-22T01:31:42.504Z,17.47
2018-04-22T01:32:42.680Z,17.39
2018-04-22T01:33:42.542Z,17.54
2018-04-22T01:34:42.557Z,17.54
2018-04-22T01:35:42.575Z,17.54
2018-04-22T01:36:42.703Z,17.63
2018-04-22T01:37:42.866Z,17.56
2018-04-22T01:38:42.610Z,17.60
2018-04-22T01:39:42.748Z,17.65
2018-04-22T01:40:42.643Z,17.60
2018-04-22T01:41:42.650Z,17.68
2018-04-22T01:42:42.771Z,17.65
2018-04-22T01:43:42.804Z,17.68
2018-04-22T01:44:42.692Z,17.78
2018-04-22T01:45:42.710Z,17.68
2018-04-22T01:46:42.717Z,17.72
2018-04-22T01:47:42.730Z,17.80
2018-04-22T01:48:42.859Z,17.91
2018-04-22T01:49:42.890Z,17.91
2018-04-22T01:50:42.774Z,17.84
2018-04-22T01:51:42.788Z,17.93
2018-04-22T01:52:42.929Z,17.97
2018-04-22T01:53:42.916Z,17.95
2018-04-22T01:54:42.839Z,17.95
2018-04-22T01:55:42.857Z,18.05
2018-04-22T01:56:42.988Z,17.93
2018-04-22T01:57:42.890Z,17.98
2018-04-22T01:58:43.036Z,17.84
2018-04-22T01:59:43.026Z,17.91
2018-04-22T02:00:42.915Z,17.84
2018-04-22T02:01:43.058Z,17.88
2018-04-22T02:02:43.068Z,17.84
2018-04-22T02:03:43.068Z,17.76
2018-04-22T02:04:42.972Z,17.78
2018-04-22T02:05:43.111Z,17.75
2018-04-22T02:06:42.999Z,17.60
2018-04-22T02:07:43.020Z,17.60
2018-04-22T02:08:43.130Z,17.57
2018-04-22T02:09:43.050Z,17.52
2018-04-22T02:10:43.054Z,17.53
2018-04-22T02:11:43.100Z,17.53
2018-04-22T02:12:43.096Z,17.49
2018-04-22T02:13:43.198Z,17.46
2018-04-22T02:14:43.240Z,17.56
2018-04-22T02:15:43.126Z,17.50
2018-04-22T02:16:43.154Z,17.39
2018-04-22T02:18:43.285Z,17.47
2018-04-22T02:19:43.201Z,17.47
2018-04-22T02:20:43.221Z,17.42
2018-04-22T02:21:43.226Z,17.47
2018-04-22T02:22:43.230Z,17.31
2018-04-22T02:23:43.398Z,17.39
2018-04-22T02:24:43.293Z,17.39
2018-04-22T02:25:43.270Z,17.44
2018-04-22T02:26:43.303Z,17.31
2018-04-22T02:27:43.312Z,17.28
2018-04-22T02:28:43.514Z,17.20
2018-04-22T02:29:43.331Z,17.20
2018-04-22T02:30:43.365Z,17.16
2018-04-22T02:31:43.355Z,17.13
2018-04-22T02:32:43.389Z,17.17
2018-04-22T02:33:43.487Z,17.13
2018-04-22T02:34:43.409Z,17.14
2018-04-22T02:35:43.416Z,17.05
2018-04-22T02:36:43.426Z,17.02
2018-04-22T02:37:43.449Z,17.09
2018-04-22T02:38:43.605Z,17.02
2018-04-22T02:39:43.479Z,17.09
2018-04-22T02:40:43.481Z,16.97
2018-04-22T02:41:43.507Z,17.02
2018-04-22T02:42:43.531Z,16.94
2018-04-22T02:43:43.633Z,16.95
2018-04-22T02:44:43.561Z,16.94
2018-04-22T02:45:43.552Z,16.87
2018-04-22T02:46:43.589Z,16.83
2018-04-22T02:47:43.602Z,16.79
2018-04-22T02:48:43.753Z,16.77
2018-04-22T02:49:43.628Z,16.82
2018-04-22T02:50:43.636Z,16.72
2018-04-22T02:51:43.636Z,16.80
2018-04-22T02:52:43.660Z,16.82
2018-04-22T02:53:43.760Z,16.68
2018-04-22T02:54:43.685Z,16.74
2018-04-22T02:55:43.688Z,16.72
2018-04-22T02:56:43.715Z,16.74
2018-04-22T02:57:43.715Z,16.74
2018-04-22T02:58:43.742Z,16.79
2018-04-22T02:59:43.909Z,16.73
2018-04-22T03:00:43.781Z,16.68
2018-04-22T03:01:43.772Z,16.68
2018-04-22T03:02:43.809Z,16.76
2018-04-22T03:03:43.824Z,16.76
2018-04-22T03:04:43.929Z,16.77
2018-04-22T03:05:43.850Z,16.77
2018-04-22T03:06:43.867Z,16.72
2018-04-22T03:07:43.865Z,16.74
2018-04-22T03:08:43.889Z,16.65
2018-04-22T03:09:43.894Z,16.77
2018-04-22T03:10:44.014Z,16.80
2018-04-22T03:11:43.922Z,16.82
2018-04-22T03:12:43.946Z,16.83
2018-04-22T03:13:43.949Z,16.77
2018-04-22T03:14:43.968Z,16.76
2018-04-22T03:15:44.135Z,16.77
2018-04-22T03:16:43.993Z,16.72
2018-04-22T03:17:43.995Z,16.76
2018-04-22T03:18:44.023Z,16.74
2018-04-22T03:19:44.035Z,16.82
2018-04-22T03:20:44.158Z,16.84
2018-04-22T03:21:44.071Z,16.86
2018-04-22T03:22:44.084Z,16.80
2018-04-22T03:23:44.073Z,16.86
2018-04-22T03:24:44.087Z,16.83
2018-04-22T03:25:44.270Z,16.83
2018-04-22T03:26:44.114Z,16.80
2018-04-22T03:27:44.149Z,16.89
2018-04-22T03:28:44.165Z,16.86
2018-04-22T03:29:44.176Z,16.94
2018-04-22T03:30:44.318Z,16.89
2018-04-22T03:31:44.190Z,16.92
2018-04-22T03:32:44.209Z,16.86
2018-04-22T03:33:44.215Z,16.91
2018-04-22T03:34:44.230Z,16.94
2018-04-22T03:35:44.403Z,16.92
2018-04-22T03:36:44.252Z,16.92
2018-04-22T03:37:44.279Z,16.86
2018-04-22T03:38:44.281Z,16.89
2018-04-22T03:39:44.292Z,16.79
2018-04-22T03:40:44.463Z,16.80
2018-04-22T03:41:44.342Z,16.74
2018-04-22T03:42:44.362Z,16.74
2018-04-22T03:43:44.374Z,16.64
2018-04-22T03:44:44.381Z,16.73
2018-04-22T03:45:44.503Z,16.68
2018-04-22T03:46:44.409Z,16.69
2018-04-22T03:47:44.420Z,16.66
2018-04-22T03:48:44.441Z,16.65
2018-04-22T03:49:44.432Z,16.69
2018-04-22T03:50:44.547Z,16.65
2018-04-22T03:51:44.486Z,16.69
2018-04-22T03:52:44.487Z,16.57
2018-04-22T03:53:44.507Z,16.69
2018-04-22T03:54:44.507Z,16.65
2018-04-22T03:55:44.520Z,16.72
2018-04-22T03:56:44.679Z,16.73
2018-04-22T03:57:44.547Z,16.69
2018-04-22T03:58:44.581Z,16.64
2018-04-22T03:59:44.576Z,16.66
2018-04-22T04:00:44.584Z,16.64
2018-04-22T04:01:44.758Z,16.69
2018-04-22T04:02:44.630Z,16.65
2018-04-22T04:03:44.650Z,16.66
2018-04-22T04:04:44.642Z,16.58
2018-04-22T04:05:44.676Z,16.61
2018-04-22T04:06:44.817Z,16.50
2018-04-22T04:07:44.699Z,16.49
2018-04-22T04:08:44.690Z,16.58
2018-04-22T04:09:44.705Z,16.57
2018-04-22T04:10:44.741Z,16.57
2018-04-22T04:11:44.905Z,16.46
2018-04-22T04:12:44.761Z,16.46
2018-04-22T04:13:44.760Z,16.54
2018-04-22T04:14:44.773Z,16.46
2018-04-22T04:15:44.802Z,16.47
2018-04-22T04:16:44.967Z,16.47
2018-04-22T04:17:44.835Z,16.55
2018-04-22T04:18:44.842Z,16.57
2018-04-22T04:19:44.847Z,16.55
2018-04-22T04:20:44.881Z,16.47
2018-04-22T04:21:45.045Z,16.47
2018-04-22T04:22:44.903Z,16.49
2018-04-22T04:23:44.896Z,16.54
2018-04-22T04:24:44.921Z,16.51
2018-04-22T04:25:44.947Z,16.46
2018-04-22T04:26:45.110Z,16.57
2018-04-22T04:27:44.966Z,16.50
2018-04-22T04:28:44.966Z,16.62
2018-04-22T04:29:44.982Z,16.62
2018-04-22T04:30:44.997Z,16.59
2018-04-22T04:31:45.166Z,16.62
2018-04-22T04:32:45.018Z,16.62
2018-04-22T04:33:45.034Z,16.49
2018-04-22T04:34:45.057Z,16.51
2018-04-22T04:35:45.071Z,16.50
2018-04-22T04:36:45.242Z,16.47
2018-04-22T04:37:45.090Z,16.55
2018-04-22T04:38:45.099Z,16.50
2018-04-22T04:39:45.131Z,16.47
2018-04-22T04:40:45.128Z,16.43
2018-04-22T04:41:45.309Z,16.46
2018-04-22T04:42:45.163Z,16.44
2018-04-22T04:43:45.183Z,16.43
2018-04-22T04:44:45.177Z,16.41
2018-04-22T04:45:45.199Z,16.44
2018-04-22T04:46:45.382Z,16.43
2018-04-22T04:47:45.223Z,16.36
2018-04-22T04:48:45.231Z,16.37
2018-04-22T04:49:45.244Z,16.34
2018-04-22T04:50:45.258Z,16.29
2018-04-22T04:51:45.424Z,16.29
2018-04-22T04:52:45.300Z,16.26
2018-04-22T04:53:45.318Z,16.31
2018-04-22T04:54:45.327Z,16.32
2018-04-22T04:55:45.332Z,16.32
2018-04-22T04:56:45.341Z,16.34
2018-04-22T04:57:45.566Z,16.28
2018-04-22T04:58:45.368Z,16.31
2018-04-22T04:59:45.384Z,16.31
2018-04-22T05:00:45.419Z,16.28
2018-04-22T05:01:45.431Z,16.34
2018-04-22T05:02:45.444Z,16.26
2018-04-22T05:03:45.588Z,16.31
2018-04-22T05:04:45.456Z,16.22
2018-04-22T05:05:45.463Z,16.17
2018-04-22T05:06:45.494Z,16.16
2018-04-22T05:07:45.507Z,16.22
2018-04-22T05:08:45.662Z,16.21
2018-04-22T05:09:45.534Z,16.18
2018-04-22T05:10:45.541Z,16.29
2018-04-22T05:11:45.552Z,16.22
2018-04-22T05:12:45.576Z,16.17
2018-04-22T05:13:45.565Z,16.10
2018-04-22T05:14:45.699Z,16.21
2018-04-22T05:15:45.590Z,16.09
2018-04-22T05:16:45.627Z,16.22
2018-04-22T05:17:45.617Z,16.09
2018-04-22T05:18:45.695Z,16.09
2018-04-22T05:19:45.807Z,16.16
2018-04-22T05:20:45.664Z,16.12
2018-04-22T05:21:45.669Z,16.13
2018-04-22T05:22:45.689Z,16.17
2018-04-22T05:23:45.711Z,16.13
2018-04-22T05:24:45.732Z,16.09
2018-04-22T05:25:45.890Z,16.10
2018-04-22T05:26:45.742Z,16.12
2018-04-22T05:27:45.772Z,16.09
2018-04-22T05:28:45.770Z,16.09
2018-04-22T05:29:45.778Z,16.08
2018-04-22T05:30:45.897Z,16.18
2018-04-22T05:31:45.814Z,16.24
2018-04-22T05:32:45.843Z,16.24
2018-04-22T05:33:45.832Z,16.24
2018-04-22T05:34:45.867Z,16.21
2018-04-22T05:35:45.858Z,16.18
2018-04-22T05:36:46.178Z,16.12
2018-04-22T05:37:45.907Z,16.08
2018-04-22T05:38:45.907Z,16.08
2018-04-22T05:39:45.922Z,16.03
2018-04-22T05:40:45.935Z,16.06
2018-04-22T05:41:46.104Z,16.06
2018-04-22T05:42:45.976Z,16.03
2018-04-22T05:43:45.976Z,16.00
2018-04-22T05:44:45.997Z,16.09
2018-04-22T05:45:46.015Z,16.05
2018-04-22T05:46:46.101Z,15.96
2018-04-22T05:47:46.029Z,16.03
2018-04-22T05:48:46.070Z,15.94
2018-04-22T05:49:46.054Z,15.90
2018-04-22T05:50:46.075Z,15.87
2018-04-22T05:51:46.231Z,15.88
2018-04-22T05:52:46.095Z,15.88
2018-04-22T05:53:46.101Z,15.92
2018-04-22T05:54:46.108Z,15.80
2018-04-22T05:55:46.119Z,15.84
2018-04-22T05:56:46.302Z,15.90
2018-04-22T05:57:46.172Z,15.85
2018-04-22T05:58:46.178Z,15.84
2018-04-22T05:59:46.184Z,15.81
2018-04-22T06:00:46.192Z,15.83
2018-04-22T06:01:46.300Z,15.85
2018-04-22T06:02:46.238Z,15.80
2018-04-22T06:03:46.247Z,15.78
2018-04-22T06:04:46.239Z,15.80
2018-04-22T06:05:46.272Z,15.75
2018-04-22T06:06:46.435Z,15.72
2018-04-22T06:07:46.283Z,15.72
2018-04-22T06:08:46.293Z,15.70
2018-04-22T06:09:46.330Z,15.69
2018-04-22T06:10:46.319Z,15.70
2018-04-22T06:11:46.557Z,15.70
2018-04-22T06:12:46.349Z,15.73
2018-04-22T06:13:46.356Z,15.72
2018-04-22T06:14:46.376Z,15.80
2018-04-22T06:15:46.387Z,15.76
2018-04-22T06:16:46.670Z,15.84
2018-04-22T06:17:46.535Z,15.78
2018-04-22T06:18:46.419Z,15.76
2018-04-22T06:19:46.447Z,15.78
2018-04-22T06:20:46.572Z,15.75
2018-04-22T06:21:46.612Z,15.84
2018-04-22T06:22:46.645Z,15.84
2018-04-22T06:23:46.480Z,15.81
2018-04-22T06:24:46.624Z,15.88
2018-04-22T06:25:46.642Z,15.73
2018-04-22T06:26:46.537Z,15.76
2018-04-22T06:27:46.640Z,15.81
2018-04-22T06:28:46.553Z,15.80
2018-04-22T06:29:46.694Z,15.80
2018-04-22T06:30:46.581Z,15.87
2018-04-22T06:31:46.591Z,15.88
2018-04-22T06:32:46.712Z,15.91
2018-04-22T06:33:46.618Z,15.92
2018-04-22T06:34:46.638Z,15.91
2018-04-22T06:35:46.649Z,15.99
2018-04-22T06:36:46.655Z,15.94
2018-04-22T06:37:46.676Z,15.96
2018-04-22T06:38:46.840Z,15.98
2018-04-22T06:39:46.709Z,16.00
2018-04-22T06:40:46.834Z,15.98
2018-04-22T06:41:46.717Z,15.99
2018-04-22T06:42:46.745Z,15.99
2018-04-22T06:43:46.859Z,15.99
2018-04-22T06:44:46.895Z,15.98
2018-04-22T06:45:46.900Z,16.00
2018-04-22T06:46:46.799Z,16.03
2018-04-22T06:47:46.929Z,15.96
2018-04-22T06:48:46.971Z,15.99
2018-04-22T06:49:46.825Z,16.05
2018-04-22T06:50:46.847Z,16.08
2018-04-22T06:51:46.982Z,16.12
2018-04-22T06:52:46.868Z,16.12
2018-04-22T06:53:46.985Z,16.09
2018-04-22T06:54:46.909Z,16.24
2018-04-22T06:55:46.898Z,16.28
2018-04-22T06:56:47.048Z,16.25
2018-04-22T06:57:46.929Z,16.32
2018-04-22T06:58:46.963Z,16.31
2018-04-22T06:59:47.111Z,16.41
2018-04-22T07:00:46.986Z,16.49
2018-04-22T07:01:46.985Z,16.39
2018-04-22T07:02:46.988Z,16.46
2018-04-22T07:03:47.030Z,16.50
2018-04-22T07:04:47.144Z,16.55
2018-04-22T07:05:47.052Z,16.57
2018-04-22T07:06:47.063Z,16.51
2018-04-22T07:07:47.065Z,16.46
2018-04-22T07:08:47.204Z,16.54
2018-04-22T07:09:47.191Z,16.50
2018-04-22T07:10:47.233Z,16.54
2018-04-22T07:11:47.124Z,16.44
2018-04-22T07:12:47.131Z,16.43
2018-04-22T07:13:47.159Z,16.41
2018-04-22T07:14:47.306Z,16.44
2018-04-22T07:15:47.178Z,16.40
2018-04-22T07:16:47.310Z,16.34
2018-04-22T07:17:47.322Z,16.39
2018-04-22T07:18:47.338Z,16.41
2018-04-22T07:19:47.382Z,16.34
2018-04-22T07:20:47.365Z,16.31
2018-04-22T07:21:47.270Z,16.36
2018-04-22T07:22:47.262Z,16.40
2018-04-22T07:23:47.288Z,16.36
2018-04-22T07:24:47.516Z,16.50
2018-04-22T07:25:47.429Z,16.41
2018-04-22T07:26:47.311Z,16.41
2018-04-22T07:27:47.459Z,16.34
2018-04-22T07:28:47.355Z,16.49
2018-04-22T07:29:47.469Z,16.36
2018-04-22T07:30:47.382Z,16.31
2018-04-22T07:31:47.399Z,16.28
2018-04-22T07:32:47.398Z,16.34
2018-04-22T07:33:47.417Z,16.21
2018-04-22T07:34:47.524Z,16.24
2018-04-22T07:35:47.439Z,16.17
2018-04-22T07:36:47.457Z,16.21
2018-04-22T07:37:47.465Z,16.12
2018-04-22T07:38:47.485Z,16.17
2018-04-22T07:39:47.486Z,16.12
2018-04-22T07:40:47.733Z,16.16
2018-04-22T07:41:47.645Z,16.09
2018-04-22T07:42:47.529Z,16.10
2018-04-22T07:43:47.553Z,16.05
2018-04-22T07:44:47.683Z,15.99
2018-04-22T07:45:47.798Z,15.99
2018-04-22T07:46:47.584Z,16.05
2018-04-22T07:47:47.724Z,16.06
2018-04-22T07:48:47.738Z,16.05
2018-04-22T07:49:47.750Z,16.06
2018-04-22T07:50:47.635Z,16.09
2018-04-22T07:51:47.926Z,16.05
2018-04-22T07:52:47.790Z,16.02
2018-04-22T07:53:47.698Z,16.09
2018-04-22T07:54:47.694Z,16.03
2018-04-22T07:55:47.716Z,15.99
2018-04-22T07:56:47.872Z,16.05
2018-04-22T07:57:47.855Z,15.92
2018-04-22T07:58:47.746Z,15.92
2018-04-22T07:59:47.768Z,15.87
2018-04-22T08:00:47.776Z,15.83
2018-04-22T08:01:47.793Z,15.91
2018-04-22T08:02:47.900Z,15.83
2018-04-22T08:03:47.809Z,15.81
2018-04-22T08:04:47.952Z,15.87
2018-04-22T08:05:47.836Z,15.81
2018-04-22T08:06:47.988Z,15.81
2018-04-22T08:07:48.019Z,15.85
2018-04-22T08:08:47.876Z,15.80
2018-04-22T08:09:47.894Z,15.81
2018-04-22T08:10:47.902Z,15.76
2018-04-22T08:11:47.941Z,15.80
2018-04-22T08:12:48.039Z,15.75
2018-04-22T08:13:47.934Z,15.81
2018-04-22T08:14:47.963Z,15.73
2018-04-22T08:15:47.981Z,15.69
2018-04-22T08:16:48.107Z,15.69
2018-04-22T08:17:48.093Z,15.75
2018-04-22T08:18:48.131Z,15.66
2018-04-22T08:19:48.030Z,15.69
2018-04-22T08:20:48.025Z,15.67
2018-04-22T08:21:48.169Z,15.67
2018-04-22T08:22:48.065Z,15.73
2018-04-22T08:23:48.183Z,15.62
2018-04-22T08:24:48.096Z,15.72
2018-04-22T08:25:48.102Z,15.73
2018-04-22T08:26:48.105Z,15.67
2018-04-22T08:27:48.136Z,15.67
2018-04-22T08:28:48.244Z,15.75
2018-04-22T08:29:48.156Z,15.63
2018-04-22T08:30:48.168Z,15.67
2018-04-22T08:31:48.303Z,15.72
2018-04-22T08:32:48.188Z,15.63
2018-04-22T08:33:48.357Z,15.69
2018-04-22T08:34:48.341Z,15.72
2018-04-22T08:35:48.234Z,15.66
2018-04-22T08:36:48.366Z,15.65
2018-04-22T08:37:48.381Z,15.60
2018-04-22T08:38:48.492Z,15.69
2018-04-22T08:39:48.286Z,15.62
2018-04-22T08:40:48.296Z,15.66
2018-04-22T08:41:48.304Z,15.55
2018-04-22T08:42:48.325Z,15.65
2018-04-22T08:43:48.431Z,15.59
2018-04-22T08:44:48.470Z,15.60
2018-04-22T08:45:48.355Z,15.66
2018-04-22T08:46:48.495Z,15.62
2018-04-22T08:47:48.396Z,15.66
2018-04-22T08:48:48.620Z,15.59
2018-04-22T08:49:48.412Z,15.63
2018-04-22T08:50:48.420Z,15.62
2018-04-22T08:51:48.434Z,15.62
2018-04-22T08:52:48.573Z,15.60
2018-04-22T08:53:48.572Z,15.65
2018-04-22T08:54:48.472Z,15.52
2018-04-22T08:55:48.491Z,15.57
2018-04-22T08:56:48.500Z,15.62
2018-04-22T08:57:48.518Z,15.60
2018-04-22T08:58:48.526Z,15.62
2018-04-22T08:59:48.642Z,15.66
2018-04-22T09:00:48.566Z,15.60
2018-04-22T09:01:48.568Z,15.52
2018-04-22T09:02:48.701Z,15.57
2018-04-22T09:03:48.717Z,15.52
2018-04-22T09:04:48.701Z,15.55
2018-04-22T09:05:48.631Z,15.54
2018-04-22T09:06:48.638Z,15.43
2018-04-22T09:07:48.767Z,15.47
2018-04-22T09:08:48.780Z,15.48
2018-04-22T09:09:48.704Z,15.44
2018-04-22T09:10:48.884Z,15.47
2018-04-22T09:11:48.820Z,15.41
2018-04-22T09:12:48.713Z,15.32
2018-04-22T09:13:48.719Z,15.35
2018-04-22T09:14:48.738Z,15.29
2018-04-22T09:15:49.026Z,15.32
2018-04-22T09:16:48.760Z,15.39
2018-04-22T09:17:48.767Z,15.39
2018-04-22T09:18:48.910Z,15.27
2018-04-22T09:19:49.005Z,15.32
2018-04-22T09:20:48.917Z,15.22
2018-04-22T09:21:48.946Z,15.17
2018-04-22T09:22:48.833Z,15.11
2018-04-22T09:23:48.855Z,15.14
2018-04-22T09:24:48.864Z,15.14
2018-04-22T09:25:48.879Z,15.25
2018-04-22T09:26:48.986Z,15.14
2018-04-22T09:27:48.890Z,15.30
2018-04-22T09:28:48.919Z,15.30
2018-04-22T09:29:49.052Z,15.32
2018-04-22T09:30:49.062Z,15.43
2018-04-22T09:31:49.176Z,15.39
2018-04-22T09:32:49.091Z,15.36
2018-04-22T09:33:48.982Z,15.44
2018-04-22T09:34:49.113Z,15.44
2018-04-22T09:35:49.126Z,15.51
2018-04-22T09:36:49.120Z,15.48
2018-04-22T09:37:49.152Z,15.62
2018-04-22T09:38:49.166Z,15.65
2018-04-22T09:39:49.053Z,15.62
2018-04-22T09:40:49.075Z,15.60
2018-04-22T09:41:49.180Z,15.60
2018-04-22T09:42:49.100Z,15.66
2018-04-22T09:43:49.111Z,15.73
2018-04-22T09:44:49.117Z,15.84
2018-04-22T09:45:49.258Z,15.85
2018-04-22T09:46:49.250Z,15.91
2018-04-22T09:47:49.171Z,15.98
2018-04-22T09:48:49.297Z,16.17
2018-04-22T09:49:49.353Z,16.13
2018-04-22T09:50:49.325Z,16.22
2018-04-22T09:51:49.438Z,16.36
2018-04-22T09:52:49.228Z,16.50
2018-04-22T09:53:49.249Z,16.59
2018-04-22T09:54:49.266Z,16.65
2018-04-22T09:55:49.260Z,16.82
2018-04-22T09:56:49.506Z,16.91
2018-04-22T09:57:49.423Z,17.04
2018-04-22T09:58:49.433Z,17.05
2018-04-22T09:59:49.335Z,17.22
2018-04-22T10:00:49.466Z,17.22
2018-04-22T10:01:49.464Z,17.22
2018-04-22T10:02:49.496Z,17.50
2018-04-22T10:03:49.381Z,17.47
2018-04-22T10:04:49.449Z,17.56
2018-04-22T10:05:49.535Z,17.79
2018-04-22T10:06:49.531Z,17.72
2018-04-22T10:07:49.440Z,17.86
2018-04-22T10:08:49.580Z,18.08
2018-04-22T10:09:49.606Z,18.18
2018-04-22T10:10:49.612Z,18.15
2018-04-22T10:11:49.728Z,18.36
2018-04-22T10:12:49.514Z,18.39
2018-04-22T10:13:49.658Z,18.58
2018-04-22T10:14:49.558Z,18.76
2018-04-22T10:15:49.559Z,18.89
2018-04-22T10:16:49.803Z,18.91
2018-04-22T10:17:49.601Z,19.00
2018-04-22T10:18:49.623Z,19.16
2018-04-22T10:19:49.626Z,19.23
2018-04-22T10:20:49.766Z,19.32
2018-04-22T10:21:49.764Z,19.59
2018-04-22T10:22:49.674Z,19.81
2018-04-22T10:23:49.701Z,19.90
2018-04-22T10:24:49.830Z,20.07
2018-04-22T10:25:49.734Z,20.14
2018-04-22T10:26:49.966Z,20.29
2018-04-22T10:27:49.749Z,20.50
2018-04-22T10:28:49.779Z,20.59
2018-04-22T10:29:49.792Z,20.68
2018-04-22T10:30:49.817Z,20.88
2018-04-22T10:31:49.930Z,21.05
2018-04-22T10:32:49.841Z,21.30
2018-04-22T10:33:49.865Z,21.45
2018-04-22T10:34:50.005Z,21.56
2018-04-22T10:35:49.900Z,21.77
2018-04-22T10:36:50.029Z,21.77
2018-04-22T10:37:49.932Z,21.63
2018-04-22T10:38:50.072Z,21.58
2018-04-22T10:39:50.089Z,21.60
2018-04-22T10:40:49.981Z,21.70
2018-04-22T10:41:50.104Z,21.85
2018-04-22T10:42:50.030Z,22.03
2018-04-22T10:43:50.162Z,22.16
2018-04-22T10:44:50.055Z,22.22
2018-04-22T10:45:50.199Z,22.38
2018-04-22T10:46:50.192Z,22.51
2018-04-22T10:47:50.112Z,22.43
2018-04-22T10:48:50.255Z,22.53
2018-04-22T10:49:50.148Z,22.63
2018-04-22T10:50:50.292Z,22.63
2018-04-22T10:51:50.410Z,22.80
2018-04-22T10:52:50.216Z,22.99
2018-04-22T10:53:50.348Z,23.26
2018-04-22T10:54:50.370Z,23.51
2018-04-22T10:55:50.388Z,23.77
2018-04-22T10:56:50.440Z,23.81
2018-04-22T10:57:50.303Z,24.10
2018-04-22T10:58:50.444Z,24.21
2018-04-22T10:59:50.483Z,24.09
2018-04-22T11:00:50.356Z,24.16
2018-04-22T11:01:50.538Z,24.19
2018-04-22T11:02:50.399Z,24.13
2018-04-22T11:03:50.423Z,24.09
2018-04-22T11:04:50.438Z,24.07
2018-04-22T11:05:50.581Z,24.01
2018-04-22T11:06:50.699Z,24.04
2018-04-22T11:07:50.496Z,24.06
2018-04-22T11:08:50.514Z,24.16
2018-04-22T11:09:50.660Z,24.25
2018-04-22T11:10:50.680Z,24.24
2018-04-22T11:11:50.806Z,24.28
2018-04-22T11:12:50.719Z,24.21
2018-04-22T11:13:50.620Z,24.32
2018-04-22T11:14:50.632Z,24.46
2018-04-22T11:15:50.779Z,24.65
2018-04-22T11:16:50.686Z,24.86
2018-04-22T11:17:50.973Z,25.18
2018-04-22T11:18:50.725Z,25.44
2018-04-22T11:19:50.859Z,25.51
2018-04-22T11:20:50.878Z,25.49
2018-04-22T11:21:50.785Z,25.76
2018-04-22T11:22:50.892Z,25.80
2018-04-22T11:23:50.942Z,25.77
2018-04-22T11:24:50.833Z,25.89
2018-04-22T11:25:50.855Z,25.78
2018-04-22T11:26:51.000Z,25.74
2018-04-22T11:27:51.052Z,25.74
2018-04-22T11:28:51.043Z,25.74
2018-04-22T11:29:51.060Z,25.74
2018-04-22T11:30:51.080Z,25.63
2018-04-22T11:31:50.976Z,25.66
2018-04-22T11:32:51.103Z,25.56
2018-04-22T11:33:51.014Z,25.43
2018-04-22T11:34:51.045Z,25.37
2018-04-22T11:35:51.063Z,25.33
2018-04-22T11:36:51.076Z,25.37
2018-04-22T11:37:51.473Z,25.30
2018-04-22T11:38:51.114Z,25.39
2018-04-22T11:39:51.146Z,25.29
2018-04-22T11:40:51.282Z,25.30
2018-04-22T11:41:51.175Z,25.31
2018-04-22T11:42:51.358Z,25.18
2018-04-22T11:43:51.218Z,25.26
2018-04-22T11:44:51.235Z,25.14
2018-04-22T11:45:51.384Z,25.21
2018-04-22T11:46:51.284Z,25.26
2018-04-22T11:47:51.549Z,25.29
2018-04-22T11:48:51.316Z,25.55
2018-04-22T11:49:51.338Z,25.51
2018-04-22T11:50:51.364Z,25.70
2018-04-22T11:51:51.374Z,25.70
2018-04-22T11:52:51.552Z,25.49
2018-04-22T11:53:51.415Z,25.49
2018-04-22T11:54:51.564Z,25.43
2018-04-22T11:55:51.463Z,25.41
2018-04-22T11:56:51.478Z,25.48
2018-04-22T11:57:51.649Z,25.55
2018-04-22T11:58:51.641Z,25.51
2018-04-22T11:59:51.591Z,25.49
2018-04-22T12:00:51.562Z,25.54
2018-04-22T12:01:51.567Z,25.39
2018-04-22T12:02:51.820Z,25.30
2018-04-22T12:03:51.740Z,25.18
2018-04-22T12:04:51.643Z,25.16
2018-04-22T12:05:51.666Z,25.12
2018-04-22T12:06:51.671Z,25.16
2018-04-22T12:07:51.903Z,25.44
2018-04-22T12:08:51.838Z,25.68
2018-04-22T12:09:51.859Z,25.92
2018-04-22T12:10:51.878Z,25.99
2018-04-22T12:11:51.778Z,25.95
2018-04-22T12:12:51.793Z,25.81
2018-04-22T12:13:51.969Z,25.78
2018-04-22T12:14:51.836Z,25.73
2018-04-22T12:15:51.859Z,25.68
2018-04-22T12:16:51.997Z,25.76
2018-04-22T12:17:52.017Z,25.73
2018-04-22T12:18:52.014Z,25.88
2018-04-22T12:19:51.944Z,26.06
2018-04-22T12:20:51.949Z,26.23
2018-04-22T12:21:52.101Z,26.36
2018-04-22T12:22:52.115Z,26.45
2018-04-22T12:23:52.123Z,26.48
2018-04-22T12:24:52.039Z,26.52
2018-04-22T12:25:52.064Z,26.51
2018-04-22T12:26:52.074Z,26.67
2018-04-22T12:27:52.092Z,26.89
2018-04-22T12:28:52.387Z,26.93
2018-04-22T12:29:52.132Z,26.91
2018-04-22T12:30:52.157Z,26.92
2018-04-22T12:31:52.361Z,26.96
2018-04-22T12:32:52.318Z,27.08
2018-04-22T12:33:52.316Z,27.16
2018-04-22T12:34:52.359Z,27.26
2018-04-22T12:35:52.259Z,27.30
2018-04-22T12:36:52.275Z,27.35
2018-04-22T12:37:52.368Z,27.52
2018-04-22T12:38:52.465Z,27.66
2018-04-22T12:39:52.334Z,27.83
2018-04-22T12:40:52.373Z,27.83
2018-04-22T12:41:52.503Z,27.79
2018-04-22T12:42:52.526Z,27.72
2018-04-22T12:43:52.897Z,27.68
2018-04-22T12:44:52.565Z,27.53
2018-04-22T12:45:52.582Z,27.48
2018-04-22T12:46:52.485Z,27.35
2018-04-22T12:47:52.518Z,27.20
2018-04-22T12:48:52.803Z,27.16
2018-04-22T12:49:52.551Z,27.13
2018-04-22T12:50:52.685Z,27.23
2018-04-22T12:51:52.573Z,27.43
2018-04-22T12:52:52.609Z,27.41
2018-04-22T12:53:52.804Z,27.44